Time;durP1;ratioP1;P1;durP2;ratioP2;P2;SDS_P1;SDS_P2;PMS_P1;PMS_P2;Temp;Humidity;BMP_temperature;BMP_pressure;BME280_temperature;BME280_humidity;BME280_pressure;Samples;Min_cycle;Max_cycle;Signal;HPM_P1;HPM_P2
2022/03/25 00:00:26;;;;;;;18.05;7.28;;;7.40;64.20;;;;;;4999473;28;20692;-64
2022/03/25 00:02:53;;;;;;;14.40;7.13;;;7.30;64.50;;;;;;5003835;28;20507;-66
2022/03/25 00:05:20;;;;;;;18.08;8.30;;;7.30;64.60;;;;;;5002027;28;20064;-66
2022/03/25 00:07:49;;;;;;;14.85;7.22;;;7.20;64.90;;;;;;4983561;28;20161;-66
2022/03/25 00:10:16;;;;;;;14.90;7.10;;;7.20;65.00;;;;;;5001937;28;20041;-65
2022/03/25 00:12:43;;;;;;;20.27;7.55;;;7.20;65.20;;;;;;5000640;28;20393;-64
2022/03/25 00:15:10;;;;;;;17.25;7.47;;;7.20;65.30;;;;;;5000008;28;20042;-64
2022/03/25 00:17:37;;;;;;;16.35;7.88;;;7.10;65.30;;;;;;4996676;28;20446;-64
2022/03/25 00:20:05;;;;;;;13.18;6.47;;;7.10;65.40;;;;;;4999340;28;20394;-65
2022/03/25 00:22:32;;;;;;;15.27;7.60;;;7.10;65.60;;;;;;4997201;28;20483;-65
2022/03/25 00:25:01;;;;;;;15.80;7.97;;;7.10;65.50;;;;;;4998840;28;20118;-65
2022/03/25 00:27:28;;;;;;;15.23;6.90;;;7.10;65.60;;;;;;5000876;28;20053;-65
2022/03/25 00:29:55;;;;;;;18.80;6.95;;;7.10;65.40;;;;;;4995132;28;20121;-64
2022/03/25 00:32:23;;;;;;;16.60;7.43;;;7.10;65.40;;;;;;4995404;28;20110;-65
2022/03/25 00:34:50;;;;;;;16.80;7.40;;;7.00;65.60;;;;;;5000518;28;20115;-65
2022/03/25 00:37:18;;;;;;;13.32;6.30;;;6.90;65.60;;;;;;5006709;28;20064;-64
2022/03/25 00:39:45;;;;;;;13.00;6.35;;;6.90;65.70;;;;;;5001364;28;20060;-64
2022/03/25 00:42:16;;;;;;;10.80;5.55;;;6.90;65.70;;;;;;5000117;28;20105;-64
2022/03/25 00:44:44;;;;;;;14.07;5.68;;;6.80;65.70;;;;;;5002232;28;20412;-64
2022/03/25 00:47:11;;;;;;;13.23;5.72;;;6.80;65.70;;;;;;5002050;28;20044;-63
2022/03/25 00:49:40;;;;;;;13.23;6.47;;;6.80;65.60;;;;;;5000833;28;20061;-65
2022/03/25 00:52:07;;;;;;;12.80;6.75;;;6.80;65.60;;;;;;4984769;28;20054;-66
2022/03/25 00:54:36;;;;;;;13.55;6.28;;;6.70;65.70;;;;;;4992084;28;20514;-64
2022/03/25 00:57:03;;;;;;;15.27;7.20;;;6.70;65.80;;;;;;4984780;28;20454;-64
2022/03/25 00:59:32;;;;;;;15.25;6.93;;;6.70;65.70;;;;;;5005550;28;20468;-65
2022/03/25 01:02:00;;;;;;;14.48;7.57;;;6.60;65.80;;;;;;4998826;28;20050;-64
2022/03/25 01:04:28;;;;;;;14.50;7.75;;;6.60;66.10;;;;;;4985754;28;20057;-64
2022/03/25 01:06:56;;;;;;;14.15;7.38;;;6.60;66.00;;;;;;5001911;28;20070;-65
2022/03/25 01:09:24;;;;;;;18.63;8.68;;;6.60;66.20;;;;;;5000713;28;20422;-63
2022/03/25 01:11:51;;;;;;;17.48;7.65;;;6.60;66.40;;;;;;4983711;28;20081;-65
2022/03/25 01:14:20;;;;;;;15.30;7.18;;;6.60;66.60;;;;;;5002601;28;20069;-64
2022/03/25 01:16:49;;;;;;;17.65;8.63;;;6.50;66.60;;;;;;4989165;28;20076;-66
2022/03/25 01:19:16;;;;;;;16.17;8.15;;;6.60;66.50;;;;;;4995219;28;20128;-64
2022/03/25 01:21:45;;;;;;;20.73;9.73;;;6.50;66.40;;;;;;5002289;28;20127;-64
2022/03/25 01:24:12;;;;;;;14.35;6.88;;;6.40;66.50;;;;;;4999837;28;20185;-64
2022/03/25 01:26:39;;;;;;;14.88;7.45;;;6.50;66.60;;;;;;5000055;28;20096;-64
2022/03/25 01:29:07;;;;;;;15.13;7.78;;;6.50;66.50;;;;;;5000379;28;20050;-64
2022/03/25 01:31:34;;;;;;;17.15;7.97;;;6.50;66.40;;;;;;4989997;28;20590;-65
2022/03/25 01:34:04;;;;;;;16.50;7.95;;;6.50;66.40;;;;;;4998094;28;20133;-64
2022/03/25 01:36:31;;;;;;;14.13;7.57;;;6.40;66.50;;;;;;5000550;28;20051;-65
2022/03/25 01:38:58;;;;;;;17.45;7.80;;;6.40;66.40;;;;;;5000168;28;20058;-63
2022/03/25 01:41:27;;;;;;;19.20;8.45;;;6.40;66.50;;;;;;5000311;28;20507;-65
2022/03/25 01:43:55;;;;;;;17.20;7.43;;;6.40;66.70;;;;;;4998319;28;20038;-63
2022/03/25 01:46:22;;;;;;;16.80;7.95;;;6.30;66.70;;;;;;4996029;28;20092;-64
2022/03/25 01:48:50;;;;;;;13.80;7.32;;;6.30;66.90;;;;;;4992899;28;20050;-64
2022/03/25 01:51:21;;;;;;;18.70;8.15;;;6.30;66.80;;;;;;4977364;28;20136;-63
2022/03/25 01:53:48;;;;;;;17.63;7.68;;;6.30;66.70;;;;;;4975743;28;20042;-64
2022/03/25 01:56:22;;;;;;;15.30;6.93;;;6.20;66.80;;;;;;4993546;28;20402;-65
2022/03/25 01:58:50;;;;;;;13.25;7.13;;;6.20;66.80;;;;;;4979241;28;20137;-65
2022/03/25 02:01:18;;;;;;;15.05;7.35;;;6.20;66.90;;;;;;4993444;28;20398;-63
2022/03/25 02:03:46;;;;;;;18.35;7.43;;;6.20;67.00;;;;;;4994370;28;20048;-65
2022/03/25 02:06:13;;;;;;;16.35;6.95;;;6.10;67.00;;;;;;4990891;28;20447;-66
2022/03/25 02:08:42;;;;;;;16.05;7.80;;;6.10;67.20;;;;;;4992014;28;20038;-65
2022/03/25 02:11:09;;;;;;;18.00;8.52;;;6.10;67.20;;;;;;4992751;28;20041;-64
2022/03/25 02:13:37;;;;;;;15.43;6.40;;;6.10;67.20;;;;;;4974280;28;20088;-65
2022/03/25 02:16:05;;;;;;;20.30;8.43;;;6.00;67.30;;;;;;4981528;28;20050;-65
2022/03/25 02:18:32;;;;;;;19.30;7.80;;;6.00;67.40;;;;;;4991189;28;20054;-65
2022/03/25 02:21:00;;;;;;;15.85;7.50;;;6.00;67.40;;;;;;4992745;28;20041;-65
2022/03/25 02:23:28;;;;;;;14.18;7.15;;;6.00;67.50;;;;;;4991669;28;20042;-65
2022/03/25 02:25:56;;;;;;;16.42;7.10;;;6.00;67.50;;;;;;4990988;28;20038;-64
2022/03/25 02:28:24;;;;;;;14.55;7.40;;;6.00;67.40;;;;;;4973706;28;20112;-66
2022/03/25 02:30:55;;;;;;;18.27;7.72;;;5.90;67.40;;;;;;4975356;28;20495;-64
2022/03/25 02:33:22;;;;;;;18.52;7.65;;;5.90;67.60;;;;;;4975998;28;20058;-66
2022/03/25 02:35:51;;;;;;;18.73;8.23;;;5.80;67.70;;;;;;4989343;28;20549;-65
2022/03/25 02:38:21;;;;;;;15.20;7.23;;;5.80;67.70;;;;;;4980671;28;20191;-62
2022/03/25 02:40:51;;;;;;;15.85;7.53;;;5.70;67.80;;;;;;4981271;28;20128;-63
2022/03/25 02:43:18;;;;;;;14.55;6.82;;;5.70;67.90;;;;;;4977407;28;20065;-63
2022/03/25 02:45:51;;;;;;;16.73;7.35;;;5.70;68.10;;;;;;4980770;28;20050;-65
2022/03/25 02:48:18;;;;;;;15.23;7.68;;;5.70;68.10;;;;;;4976726;28;20069;-64
2022/03/25 02:50:46;;;;;;;16.85;8.25;;;5.70;68.20;;;;;;4980500;28;20491;-65
2022/03/25 02:53:14;;;;;;;16.85;7.22;;;5.70;68.10;;;;;;4993902;28;20057;-63
2022/03/25 02:55:41;;;;;;;16.30;8.88;;;5.70;68.10;;;;;;4992823;28;20252;-65
2022/03/25 02:58:11;;;;;;;16.70;7.40;;;5.70;68.20;;;;;;4996619;28;20042;-63
2022/03/25 03:00:38;;;;;;;16.17;7.63;;;5.60;68.20;;;;;;4995092;28;20121;-63
2022/03/25 03:03:05;;;;;;;17.30;7.78;;;5.60;68.30;;;;;;4996051;28;20041;-64
2022/03/25 03:05:33;;;;;;;17.05;7.68;;;5.60;68.30;;;;;;4996343;28;20097;-63
2022/03/25 03:08:01;;;;;;;17.13;8.10;;;5.60;68.40;;;;;;4996808;28;20066;-66
2022/03/25 03:10:31;;;;;;;19.80;7.90;;;5.50;68.40;;;;;;4998945;28;20384;-65
2022/03/25 03:12:58;;;;;;;18.58;7.97;;;5.50;68.40;;;;;;4995248;28;20048;-63
2022/03/25 03:15:27;;;;;;;19.38;7.53;;;5.50;68.50;;;;;;4998166;28;20479;-62
2022/03/25 03:17:54;;;;;;;15.45;7.75;;;5.40;68.60;;;;;;4997475;28;20056;-64
2022/03/25 03:20:21;;;;;;;13.90;6.85;;;5.40;68.50;;;;;;4996401;28;20054;-65
2022/03/25 03:22:49;;;;;;;19.35;8.13;;;5.40;68.50;;;;;;4996873;28;20069;-64
2022/03/25 03:25:16;;;;;;;17.98;8.15;;;5.30;68.50;;;;;;4999871;28;20049;-64
2022/03/25 03:27:43;;;;;;;15.95;7.90;;;5.30;68.70;;;;;;4999487;28;20057;-62
2022/03/25 03:30:12;;;;;;;15.77;7.32;;;5.30;68.70;;;;;;4990434;28;20586;-64
2022/03/25 03:32:41;;;;;;;17.92;8.10;;;5.30;68.70;;;;;;5000521;28;20072;-64
2022/03/25 03:35:10;;;;;;;16.23;8.57;;;5.30;68.60;;;;;;4994382;28;20185;-66
2022/03/25 03:37:42;;;;;;;17.92;8.10;;;5.30;68.60;;;;;;5002233;28;20141;-62
2022/03/25 03:40:11;;;;;;;16.40;7.20;;;5.30;68.60;;;;;;4998866;28;20054;-64
2022/03/25 03:42:38;;;;;;;17.35;7.82;;;5.30;68.60;;;;;;4982336;28;20045;-63
2022/03/25 03:45:06;;;;;;;18.85;8.35;;;5.30;68.60;;;;;;4997558;28;20233;-64
2022/03/25 03:47:32;;;;;;;16.38;7.20;;;5.30;68.50;;;;;;4996725;28;20132;-64
2022/03/25 03:50:01;;;;;;;14.45;7.85;;;5.30;68.50;;;;;;4994486;28;20042;-63
2022/03/25 03:52:28;;;;;;;22.02;8.80;;;5.30;68.40;;;;;;4991053;28;20427;-64
2022/03/25 03:54:55;;;;;;;18.70;8.13;;;5.30;68.40;;;;;;4995954;28;20058;-63
2022/03/25 03:57:41;;;;;;;20.80;8.00;;;5.30;68.40;;;;;;4988590;28;20133;-63
2022/03/25 04:00:11;;;;;;;17.52;8.88;;;5.30;68.40;;;;;;4991855;28;20042;-62
2022/03/25 04:02:44;;;;;;;18.63;7.55;;;5.20;68.50;;;;;;4994957;28;20096;-64
2022/03/25 04:05:13;;;;;;;18.08;7.65;;;5.20;68.50;;;;;;4977106;28;20119;-65
2022/03/25 04:07:42;;;;;;;15.52;7.95;;;5.20;68.50;;;;;;4992723;28;20140;-63
2022/03/25 04:10:09;;;;;;;19.80;8.13;;;5.10;68.60;;;;;;4994239;28;20057;-64
2022/03/25 04:12:36;;;;;;;15.23;6.65;;;5.10;68.60;;;;;;4995691;28;20479;-62
2022/03/25 04:15:05;;;;;;;18.20;6.95;;;5.10;68.60;;;;;;4994345;28;20046;-64
2022/03/25 04:17:32;;;;;;;18.65;8.52;;;5.00;68.70;;;;;;4993288;28;20057;-63
2022/03/25 04:19:59;;;;;;;17.58;8.25;;;5.00;68.80;;;;;;4995438;28;21357;-64
2022/03/25 04:22:28;;;;;;;12.07;6.40;;;5.00;68.70;;;;;;4992564;28;20042;-65
2022/03/25 04:24:55;;;;;;;19.48;7.65;;;5.00;68.70;;;;;;4993468;28;20557;-65
2022/03/25 04:27:23;;;;;;;18.25;8.35;;;4.90;68.90;;;;;;4995210;28;20066;-64
2022/03/25 04:29:50;;;;;;;15.40;7.10;;;5.00;68.90;;;;;;4995486;28;20373;-62
2022/03/25 04:32:17;;;;;;;17.13;7.55;;;4.90;68.80;;;;;;4992903;28;20073;-65
2022/03/25 04:34:44;;;;;;;15.93;7.43;;;4.90;68.90;;;;;;4993491;28;20038;-63
2022/03/25 04:37:11;;;;;;;14.95;7.45;;;4.90;68.90;;;;;;4994606;28;20161;-65
2022/03/25 04:39:39;;;;;;;16.48;8.63;;;4.90;69.10;;;;;;4994379;28;20499;-63
2022/03/25 04:42:08;;;;;;;16.88;7.28;;;4.80;69.10;;;;;;4996559;28;20046;-62
2022/03/25 04:44:35;;;;;;;18.48;8.30;;;4.90;69.10;;;;;;5003533;28;20467;-63
2022/03/25 04:47:03;;;;;;;19.83;8.77;;;4.80;69.20;;;;;;5003324;28;20124;-64
2022/03/25 04:49:30;;;;;;;17.85;7.63;;;4.80;69.30;;;;;;4998084;28;20045;-62
2022/03/25 04:51:57;;;;;;;17.60;8.75;;;4.80;69.30;;;;;;5002860;28;20438;-62
2022/03/25 04:54:24;;;;;;;21.83;8.35;;;4.70;69.30;;;;;;5002210;28;20122;-64
2022/03/25 04:56:52;;;;;;;19.95;9.70;;;4.70;69.30;;;;;;5001740;28;20097;-62
2022/03/25 04:59:19;;;;;;;17.98;7.95;;;4.70;69.40;;;;;;5001855;28;20108;-64
2022/03/25 05:01:46;;;;;;;17.92;8.55;;;4.70;69.40;;;;;;4998570;28;20037;-63
2022/03/25 05:04:13;;;;;;;15.82;7.65;;;4.70;69.40;;;;;;5001337;28;20124;-64
2022/03/25 05:06:40;;;;;;;19.38;9.43;;;4.70;69.30;;;;;;5000669;28;20109;-62
2022/03/25 05:09:09;;;;;;;17.45;8.57;;;4.70;69.40;;;;;;4997711;28;20046;-63
2022/03/25 05:11:37;;;;;;;17.60;8.27;;;4.70;69.50;;;;;;4993274;28;20120;-63
2022/03/25 05:14:05;;;;;;;19.25;8.43;;;4.60;69.60;;;;;;4994938;28;20045;-65
2022/03/25 05:16:33;;;;;;;16.90;7.60;;;4.60;69.60;;;;;;4996666;28;20042;-65
2022/03/25 05:19:00;;;;;;;19.83;8.07;;;4.60;69.60;;;;;;4992830;28;20057;-64
2022/03/25 05:21:27;;;;;;;18.58;8.27;;;4.60;69.60;;;;;;4995736;28;20048;-64
2022/03/25 05:23:54;;;;;;;17.67;8.40;;;4.60;69.80;;;;;;4996123;28;20045;-63
2022/03/25 05:26:21;;;;;;;19.27;7.72;;;4.60;69.90;;;;;;4992474;28;20046;-64
2022/03/25 05:28:48;;;;;;;17.63;8.18;;;4.60;69.90;;;;;;4995131;28;20050;-65
2022/03/25 05:31:16;;;;;;;14.52;7.88;;;4.60;70.00;;;;;;4984420;28;20042;-64
2022/03/25 05:33:43;;;;;;;18.60;8.52;;;4.60;69.90;;;;;;4983550;28;20839;-63
2022/03/25 05:36:10;;;;;;;17.27;7.70;;;4.50;70.10;;;;;;4994197;28;20049;-65
2022/03/25 05:38:37;;;;;;;21.90;8.65;;;4.50;70.10;;;;;;4983980;28;20450;-64
2022/03/25 05:41:04;;;;;;;17.27;8.45;;;4.50;70.20;;;;;;5000656;28;20060;-63
2022/03/25 05:43:31;;;;;;;18.88;8.77;;;4.50;70.20;;;;;;4992885;28;20117;-65
2022/03/25 05:45:58;;;;;;;21.60;9.77;;;4.50;70.30;;;;;;4997553;28;20057;-64
2022/03/25 05:48:27;;;;;;;17.45;9.18;;;4.50;70.30;;;;;;4994012;28;20144;-64
2022/03/25 05:50:54;;;;;;;24.42;9.57;;;4.50;70.40;;;;;;4991609;28;20132;-64
2022/03/25 05:53:20;;;;;;;18.63;9.48;;;4.50;70.40;;;;;;4994947;28;20100;-64
2022/03/25 05:55:47;;;;;;;19.38;8.35;;;4.50;70.50;;;;;;4993327;28;20148;-64
2022/03/25 05:58:14;;;;;;;20.05;9.00;;;4.60;70.60;;;;;;4992525;28;20042;-63
2022/03/25 06:00:42;;;;;;;17.88;8.95;;;4.50;70.70;;;;;;4990431;28;20483;-62
2022/03/25 06:03:10;;;;;;;23.17;8.68;;;4.60;70.80;;;;;;4994381;28;20045;-65
2022/03/25 06:05:38;;;;;;;17.25;7.63;;;4.60;70.80;;;;;;4995893;28;20046;-64
2022/03/25 06:08:05;;;;;;;15.82;7.78;;;4.60;70.90;;;;;;4994613;28;20042;-62
2022/03/25 06:10:33;;;;;;;19.65;8.57;;;4.60;70.90;;;;;;4995030;28;20088;-65
2022/03/25 06:13:00;;;;;;;20.73;9.10;;;4.60;70.90;;;;;;4995302;28;20419;-64
2022/03/25 06:15:28;;;;;;;19.27;9.93;;;4.60;70.90;;;;;;4996459;28;20047;-64
2022/03/25 06:17:55;;;;;;;21.75;9.50;;;4.60;70.90;;;;;;4995653;28;20604;-62
2022/03/25 06:20:24;;;;;;;21.30;10.23;;;4.70;70.80;;;;;;4994960;28;20117;-64
2022/03/25 06:22:52;;;;;;;18.83;8.52;;;4.80;70.80;;;;;;5000879;28;20069;-64
2022/03/25 06:25:20;;;;;;;19.65;9.48;;;4.80;70.80;;;;;;4999699;28;20044;-64
2022/03/25 06:27:48;;;;;;;18.60;9.57;;;4.90;70.90;;;;;;4999690;28;20049;-63
2022/03/25 06:30:16;;;;;;;18.73;8.25;;;4.90;71.00;;;;;;5001297;28;20050;-62
2022/03/25 06:32:43;;;;;;;16.38;8.10;;;4.90;71.10;;;;;;4992383;28;20057;-65
2022/03/25 06:35:10;;;;;;;22.40;10.30;;;5.00;71.10;;;;;;5000678;28;20044;-66
2022/03/25 06:37:38;;;;;;;22.75;9.50;;;5.10;71.00;;;;;;4999589;28;20086;-64
2022/03/25 06:40:08;;;;;;;23.27;8.65;;;5.10;71.00;;;;;;4981663;28;20050;-64
2022/03/25 06:42:35;;;;;;;19.83;9.23;;;5.20;70.90;;;;;;4977926;28;21240;-64
2022/03/25 06:45:03;;;;;;;20.00;9.63;;;5.30;70.70;;;;;;4978797;28;20564;-63
2022/03/25 06:47:30;;;;;;;22.95;10.43;;;5.40;70.50;;;;;;4964359;28;20054;-65
2022/03/25 06:49:58;;;;;;;21.38;10.82;;;5.50;70.40;;;;;;4979866;28;20145;-63
2022/03/25 06:52:26;;;;;;;24.63;10.63;;;5.60;70.30;;;;;;4985643;28;20047;-63
2022/03/25 06:54:53;;;;;;;25.00;10.77;;;5.70;70.10;;;;;;4982940;28;20042;-64
2022/03/25 06:57:22;;;;;;;28.98;10.27;;;5.80;69.90;;;;;;4981810;28;20055;-64
2022/03/25 06:59:50;;;;;;;24.35;11.43;;;5.90;69.50;;;;;;4982509;28;20043;-63
2022/03/25 07:02:17;;;;;;;19.98;10.75;;;6.00;69.20;;;;;;4979873;28;20519;-63
2022/03/25 07:04:45;;;;;;;22.88;10.45;;;6.10;69.00;;;;;;4981765;28;20046;-63
2022/03/25 07:07:12;;;;;;;21.35;10.15;;;6.10;69.00;;;;;;4984767;28;20136;-63
2022/03/25 07:09:40;;;;;;;23.00;10.55;;;6.20;68.70;;;;;;4983704;28;20054;-63
2022/03/25 07:12:09;;;;;;;23.38;11.32;;;6.20;68.50;;;;;;4984586;28;20055;-64
2022/03/25 07:14:37;;;;;;;22.42;11.35;;;6.30;68.40;;;;;;4973377;28;20447;-64
2022/03/25 07:17:05;;;;;;;18.95;10.57;;;6.40;68.40;;;;;;4983726;28;20135;-63
2022/03/25 07:19:32;;;;;;;21.50;11.23;;;6.40;68.70;;;;;;4983744;28;20042;-63
2022/03/25 07:21:59;;;;;;;21.45;9.88;;;6.40;68.50;;;;;;4983817;28;20074;-65
2022/03/25 07:24:26;;;;;;;23.98;11.45;;;6.50;68.60;;;;;;4959163;28;20055;-63
2022/03/25 07:27:00;;;;;;;23.63;11.55;;;6.50;68.50;;;;;;4965023;28;20055;-64
2022/03/25 07:29:27;;;;;;;24.98;11.05;;;6.60;68.50;;;;;;4964135;28;20066;-64
2022/03/25 07:31:55;;;;;;;27.77;12.35;;;6.60;68.60;;;;;;4989736;28;20043;-64
2022/03/25 07:34:23;;;;;;;24.77;12.48;;;6.60;68.60;;;;;;4983007;28;20052;-64
2022/03/25 07:36:49;;;;;;;24.60;11.15;;;6.70;68.70;;;;;;4984910;28;20487;-64
2022/03/25 07:39:16;;;;;;;27.85;11.88;;;6.70;68.70;;;;;;4998664;28;20054;-64
2022/03/25 07:41:44;;;;;;;27.15;11.30;;;6.80;69.00;;;;;;5003875;28;20042;-63
2022/03/25 07:44:11;;;;;;;22.48;11.57;;;6.90;69.00;;;;;;4986228;28;20050;-62
2022/03/25 07:46:38;;;;;;;25.90;11.90;;;7.00;69.00;;;;;;5004050;28;20051;-62
2022/03/25 07:49:06;;;;;;;28.05;12.73;;;7.20;68.80;;;;;;5004150;28;20046;-64
2022/03/25 07:51:33;;;;;;;27.05;12.88;;;7.30;68.50;;;;;;5004976;28;20053;-64
2022/03/25 07:54:01;;;;;;;23.83;11.65;;;7.40;68.30;;;;;;5004103;28;20050;-63
2022/03/25 07:56:31;;;;;;;26.95;11.18;;;7.60;68.10;;;;;;4996970;28;20069;-64
2022/03/25 07:58:59;;;;;;;25.63;11.77;;;7.70;67.70;;;;;;5003960;28;20046;-63
2022/03/25 08:01:26;;;;;;;23.65;12.48;;;7.80;67.60;;;;;;5001227;28;20129;-63
2022/03/25 08:03:53;;;;;;;31.27;15.07;;;7.90;67.50;;;;;;5003858;28;20507;-63
2022/03/25 08:06:22;;;;;;;28.67;13.65;;;8.10;67.00;;;;;;5005229;28;20049;-63
2022/03/25 08:08:49;;;;;;;28.25;14.75;;;8.20;66.90;;;;;;5004209;28;20049;-64
2022/03/25 08:11:18;;;;;;;31.70;14.52;;;8.30;66.60;;;;;;5004256;28;20042;-65
2022/03/25 08:13:45;;;;;;;27.05;12.50;;;8.40;66.60;;;;;;5004411;28;20072;-63
2022/03/25 08:16:16;;;;;;;34.30;13.80;;;8.60;66.50;;;;;;5002052;28;20050;-64
2022/03/25 08:18:44;;;;;;;32.80;13.93;;;8.70;65.80;;;;;;5003955;28;20063;-63
2022/03/25 08:21:11;;;;;;;30.50;14.75;;;8.70;65.40;;;;;;5003002;28;20129;-64
2022/03/25 08:29:10;;;;;;;30.42;14.20;;;9.10;64.30;;;;;;5004001;28;20033;-64
2022/03/25 08:31:37;;;;;;;36.08;13.63;;;9.20;64.20;;;;;;5001904;28;20046;-65
2022/03/25 08:34:07;;;;;;;30.60;14.88;;;9.30;63.80;;;;;;5000516;28;20234;-63
2022/03/25 08:36:34;;;;;;;32.30;14.85;;;9.50;63.30;;;;;;5001141;28;20352;-62
2022/03/25 08:39:02;;;;;;;32.05;15.35;;;9.60;62.90;;;;;;5000875;28;20140;-65
2022/03/25 08:41:29;;;;;;;31.27;14.98;;;9.70;62.50;;;;;;5000975;28;20058;-63
2022/03/25 08:43:56;;;;;;;32.67;14.25;;;9.80;62.80;;;;;;4999744;28;20392;-64
2022/03/25 08:46:23;;;;;;;35.97;15.43;;;9.90;62.40;;;;;;5001204;28;20046;-63
2022/03/25 08:48:50;;;;;;;30.75;14.20;;;10.00;61.80;;;;;;5000799;28;20050;-63
2022/03/25 08:51:17;;;;;;;30.65;15.15;;;10.20;60.70;;;;;;5000161;28;20502;-63
2022/03/25 08:53:45;;;;;;;31.98;14.45;;;10.20;60.60;;;;;;5000420;28;20125;-63
2022/03/25 08:56:14;;;;;;;31.50;15.07;;;10.20;61.20;;;;;;4999124;28;20089;-64
2022/03/25 08:58:41;;;;;;;33.97;16.30;;;10.40;61.10;;;;;;5000029;28;20077;-64
2022/03/25 09:01:08;;;;;;;39.65;15.80;;;10.50;60.30;;;;;;4998720;28;20065;-69
2022/03/25 09:03:35;;;;;;;36.50;15.55;;;10.60;60.50;;;;;;5001634;28;20058;-68
2022/03/25 09:06:03;;;;;;;35.00;15.88;;;10.70;59.60;;;;;;4989642;28;20473;-69
2022/03/25 09:08:30;;;;;;;32.90;15.45;;;10.70;60.00;;;;;;5000746;28;20056;-69
2022/03/25 09:10:57;;;;;;;29.15;15.25;;;10.80;59.50;;;;;;5001801;28;20060;-67
2022/03/25 09:13:26;;;;;;;33.08;16.00;;;10.90;59.10;;;;;;5003500;28;20039;-68
2022/03/25 09:15:53;;;;;;;36.13;17.98;;;11.00;58.50;;;;;;5002429;28;20569;-69
2022/03/25 09:18:20;;;;;;;29.15;15.48;;;11.10;57.80;;;;;;5003064;28;20484;-69
2022/03/25 09:20:47;;;;;;;36.25;15.50;;;11.20;58.70;;;;;;5002341;28;20491;-68
2022/03/25 09:23:14;;;;;;;31.58;16.27;;;11.20;57.70;;;;;;5001597;28;20586;-69
2022/03/25 09:25:42;;;;;;;34.38;16.88;;;11.30;57.60;;;;;;4984023;28;20073;-68
2022/03/25 09:28:09;;;;;;;36.13;16.15;;;11.40;57.60;;;;;;5002336;28;20691;-68
2022/03/25 09:30:39;;;;;;;31.45;14.30;;;11.50;57.40;;;;;;5002816;28;20446;-68
2022/03/25 09:33:07;;;;;;;36.05;15.70;;;11.60;57.70;;;;;;4990537;28;20050;-69
2022/03/25 09:35:35;;;;;;;34.05;15.10;;;11.60;57.40;;;;;;5001907;28;20041;-69
2022/03/25 09:38:02;;;;;;;34.22;16.60;;;11.70;57.20;;;;;;5001018;28;20175;-69
2022/03/25 09:40:29;;;;;;;33.95;16.17;;;11.90;56.90;;;;;;5002223;28;20056;-69
2022/03/25 09:42:57;;;;;;;32.22;16.25;;;11.90;56.20;;;;;;5000791;28;20066;-68
2022/03/25 09:45:26;;;;;;;33.88;15.75;;;12.00;56.10;;;;;;5002497;28;20108;-69
2022/03/25 09:47:55;;;;;;;36.40;15.73;;;12.00;56.10;;;;;;5001835;28;20124;-69
2022/03/25 09:50:24;;;;;;;30.13;15.80;;;12.10;56.60;;;;;;5002276;28;20045;-69
2022/03/25 09:52:53;;;;;;;37.53;16.40;;;12.20;56.50;;;;;;5001344;28;20049;-69
2022/03/25 09:55:21;;;;;;;34.85;15.88;;;12.30;56.00;;;;;;4999827;28;20133;-68
2022/03/25 09:57:48;;;;;;;33.25;16.23;;;12.40;55.10;;;;;;5001062;28;20132;-68
2022/03/25 10:00:17;;;;;;;33.83;15.57;;;12.50;54.70;;;;;;4999291;28;20388;-68
2022/03/25 10:02:44;;;;;;;33.03;16.35;;;12.60;54.80;;;;;;5002325;28;20492;-69
2022/03/25 10:05:17;;;;;;;42.03;16.45;;;12.60;54.70;;;;;;5001573;28;20052;-69
2022/03/25 10:07:46;;;;;;;37.75;17.20;;;12.60;54.80;;;;;;5007851;28;20092;-67
2022/03/25 10:10:15;;;;;;;35.15;15.18;;;12.70;54.70;;;;;;5008608;28;20042;-67
2022/03/25 10:12:43;;;;;;;41.42;17.88;;;12.80;54.40;;;;;;5003338;28;20052;-69
2022/03/25 10:15:19;;;;;;;32.20;14.55;;;12.90;53.90;;;;;;5006771;28;20050;-69
2022/03/25 10:17:47;;;;;;;36.17;15.93;;;12.90;53.60;;;;;;5006575;28;20050;-68
2022/03/25 10:20:16;;;;;;;33.28;15.18;;;13.00;53.50;;;;;;5005992;28;20073;-69
2022/03/25 10:23:01;;;;;;;33.65;16.50;;;13.10;53.70;;;;;;5006357;28;20033;-68
2022/03/25 10:25:37;;;;;;;31.05;15.15;;;13.20;52.70;;;;;;4996919;28;20140;-68
2022/03/25 10:28:08;;;;;;;29.42;14.35;;;13.20;53.20;;;;;;5007442;28;20409;-69
2022/03/25 10:30:40;;;;;;;34.75;17.00;;;13.20;53.50;;;;;;5005447;28;20055;-70
2022/03/25 10:33:11;;;;;;;34.92;16.77;;;13.20;53.20;;;;;;5007278;28;20058;-69
2022/03/25 10:35:57;;;;;;;32.85;17.15;;;13.30;53.30;;;;;;5005897;28;20054;-68
2022/03/25 10:38:25;;;;;;;35.55;17.17;;;13.40;52.50;;;;;;5006043;28;20053;-69
2022/03/25 10:40:54;;;;;;;35.80;15.27;;;13.60;51.30;;;;;;5004111;28;20042;-71
2022/03/25 10:43:21;;;;;;;28.15;14.80;;;13.70;51.00;;;;;;5005606;28;20058;-68
2022/03/25 10:45:48;;;;;;;32.28;15.55;;;13.70;51.20;;;;;;5007926;28;20521;-70
2022/03/25 10:48:17;;;;;;;33.70;15.68;;;13.70;51.00;;;;;;5005705;28;20072;-70
2022/03/25 10:50:57;;;;;;;28.55;14.10;;;13.70;50.60;;;;;;5007787;28;20092;-68
2022/03/25 10:53:24;;;;;;;33.50;15.57;;;13.80;50.90;;;;;;5007027;28;20093;-70
2022/03/25 10:55:55;;;;;;;31.77;16.40;;;13.90;51.00;;;;;;5006875;28;20100;-68
2022/03/25 10:58:22;;;;;;;32.55;16.65;;;13.90;51.00;;;;;;5007365;28;20484;-69
2022/03/25 11:00:50;;;;;;;34.42;16.63;;;13.90;51.00;;;;;;5004969;28;20088;-70
2022/03/25 11:03:17;;;;;;;32.95;16.40;;;13.90;50.60;;;;;;4997127;28;20074;-68
2022/03/25 11:05:45;;;;;;;35.50;16.83;;;14.00;50.20;;;;;;5006685;28;20046;-67
2022/03/25 11:08:13;;;;;;;30.02;15.57;;;14.10;49.90;;;;;;5007321;28;20045;-68
2022/03/25 11:10:40;;;;;;;28.52;13.75;;;14.10;49.80;;;;;;4988308;28;20073;-70
2022/03/25 11:13:08;;;;;;;27.80;14.55;;;14.20;49.80;;;;;;5007679;28;20104;-69
2022/03/25 11:15:37;;;;;;;25.92;13.00;;;14.20;49.50;;;;;;5008797;28;20057;-69
2022/03/25 11:18:04;;;;;;;30.45;14.23;;;14.30;49.40;;;;;;5005483;28;20145;-70
2022/03/25 11:20:32;;;;;;;32.85;15.35;;;14.30;49.20;;;;;;5003859;28;20041;-69
2022/03/25 11:23:11;;;;;;;29.88;13.93;;;14.30;48.90;;;;;;5004804;28;20117;-69
2022/03/25 11:25:43;;;;;;;34.13;14.65;;;14.30;48.80;;;;;;4987616;28;20136;-69
2022/03/25 11:28:13;;;;;;;31.58;14.85;;;14.40;47.80;;;;;;5004330;28;20154;-69
2022/03/25 11:30:40;;;;;;;30.27;14.30;;;14.50;48.60;;;;;;5005522;28;20045;-69
2022/03/25 11:33:10;;;;;;;30.75;14.75;;;14.50;48.20;;;;;;4993631;28;20081;-70
2022/03/25 11:35:38;;;;;;;27.35;14.05;;;14.50;48.60;;;;;;5004587;28;20042;-70
2022/03/25 11:38:29;;;;;;;28.55;13.40;;;14.50;48.40;;;;;;5004273;28;20077;-71
2022/03/25 11:41:21;;;;;;;25.90;14.15;;;14.60;47.80;;;;;;4983409;28;20496;-70
2022/03/25 11:44:18;;;;;;;31.08;15.02;;;14.60;48.60;;;;;;5003412;28;20049;-70
2022/03/25 11:47:14;;;;;;;31.05;15.48;;;14.60;47.70;;;;;;5003697;28;20038;-70
2022/03/25 11:49:40;;;;;;;29.83;12.98;;;14.60;48.50;;;;;;4996818;28;20153;-70
2022/03/25 11:52:26;;;;;;;25.50;12.88;;;14.60;47.90;;;;;;4993518;28;20061;-69
2022/03/25 11:54:55;;;;;;;28.73;14.65;;;14.60;48.20;;;;;;4996403;28;20045;-69
2022/03/25 11:57:25;;;;;;;26.08;13.25;;;14.70;47.90;;;;;;5000884;28;20120;-70
2022/03/25 11:59:53;;;;;;;;;;;14.70;47.60;;;;;;5002147;28;20085;-72
2022/03/25 12:02:25;;;;;;;22.40;11.73;;;14.80;47.10;;;;;;5000593;28;19932;-70
2022/03/25 12:04:52;;;;;;;29.45;13.68;;;14.80;46.70;;;;;;4999586;28;20077;-69
2022/03/25 12:07:19;;;;;;;25.98;12.35;;;14.70;47.10;;;;;;5001222;28;20467;-70
2022/03/25 12:09:46;;;;;;;25.17;11.98;;;14.70;47.00;;;;;;5003057;28;20152;-69
2022/03/25 12:12:14;;;;;;;24.13;12.55;;;14.70;47.20;;;;;;5000278;28;20136;-70
2022/03/25 12:15:07;;;;;;;26.30;11.68;;;14.70;47.20;;;;;;4999535;28;20050;-70
2022/03/25 12:17:34;;;;;;;25.05;11.93;;;14.80;47.10;;;;;;5001337;28;20503;-70
2022/03/25 12:20:02;;;;;;;25.25;12.15;;;14.80;47.60;;;;;;5000965;28;20140;-70
2022/03/25 12:22:40;;;;;;;27.00;12.82;;;14.80;47.00;;;;;;4993641;28;20166;-69
2022/03/25 12:25:20;;;;;;;22.50;10.90;;;14.90;47.30;;;;;;5001814;28;20062;-68
2022/03/25 12:27:48;;;;;;;26.60;11.25;;;14.90;46.70;;;;;;5002581;28;20063;-70
2022/03/25 12:30:16;;;;;;;26.35;12.63;;;14.80;46.40;;;;;;5002501;28;20044;-71
2022/03/25 12:32:43;;;;;;;24.15;11.63;;;14.80;46.60;;;;;;4985812;28;20054;-68
2022/03/25 12:35:13;;;;;;;23.88;11.05;;;14.90;45.60;;;;;;5003603;28;20121;-71
2022/03/25 12:37:49;;;;;;;24.48;11.07;;;14.90;46.00;;;;;;5003546;28;20133;-70
2022/03/25 12:40:18;;;;;;;26.10;12.70;;;14.90;45.60;;;;;;5002461;28;20125;-70
2022/03/25 12:42:49;;;;;;;24.97;11.23;;;14.90;45.60;;;;;;5003612;28;20137;-70
2022/03/25 12:45:18;;;;;;;23.10;12.02;;;14.90;45.80;;;;;;5002915;28;20564;-70
2022/03/25 12:47:46;;;;;;;23.38;12.32;;;14.90;45.80;;;;;;5002087;28;20066;-69
2022/03/25 12:50:18;;;;;;;30.25;13.50;;;14.90;46.10;;;;;;4984748;28;20065;-70